Time;durP1;ratioP1;P1;durP2;ratioP2;P2;SDS_P1;SDS_P2;PMS_P1;PMS_P2;Temp;Humidity;BMP_temperature;BMP_pressure;BME280_temperature;BME280_humidity;BME280_pressure;Samples;Min_cycle;Max_cycle;Signal;HPM_P1;HPM_P2
2022/12/14 07:35:43;;;;;;;0.90;0.90;;;-1.20;99.90;-2.20;99904.00;;;;5081498;22;20240;-63
2022/12/14 07:38:17;;;;;;;0.50;0.50;;;-1.40;99.90;-1.10;99902.00;;;;5072122;28;20198;-64
2022/12/14 07:41:11;;;;;;;0.30;0.30;;;-1.00;99.90;-1.30;99931.00;;;;5053840;28;20190;-64
2022/12/14 07:43:53;;;;;;;0.30;0.30;;;-0.90;99.90;-1.50;99934.00;;;;5071589;28;20195;-64
2022/12/14 07:46:29;;;;;;;1.07;1.07;;;-0.90;99.90;-1.30;99827.00;;;;5041073;28;20202;-62
2022/12/14 07:49:12;;;;;;;0.50;0.50;;;-1.00;99.90;-1.40;99920.00;;;;5052271;28;20657;-63
2022/12/14 07:51:46;;;;;;;0.40;0.40;;;-1.00;99.90;-1.60;99919.00;;;;5047388;28;20185;-64
2022/12/14 07:54:27;;;;;;;0.40;0.40;;;-1.10;99.90;-1.40;99909.00;;;;5068983;28;20580;-65
2022/12/14 07:57:01;;;;;;;0.73;0.73;;;-1.00;99.90;-1.50;99923.00;;;;5057712;28;20644;-64
2022/12/14 07:59:50;;;;;;;0.67;0.67;;;-1.10;99.90;-1.70;99923.00;;;;5057835;28;20227;-64
2022/12/14 08:02:34;;;;;;;0.40;0.40;;;-1.20;99.90;-1.60;99917.00;;;;5051530;28;20245;-64
2022/12/14 08:05:14;;;;;;;0.37;0.37;;;-1.20;99.90;-1.30;99920.00;;;;5074760;28;20741;-64
2022/12/14 08:07:50;;;;;;;0.40;0.40;;;-1.20;99.90;-1.40;99934.00;;;;5054648;28;20222;-65
2022/12/14 08:14:41;;;;;;;0.57;0.57;;;-1.20;99.90;-1.70;99924.00;;;;5057778;28;20185;-64
2022/12/14 08:17:34;;;;;;;0.40;0.40;;;-1.40;99.90;-1.50;99873.00;;;;5042343;28;20670;-64
2022/12/14 08:20:28;;;;;;;0.40;0.40;;;-1.30;99.90;-1.50;99925.00;;;;5044690;28;20194;-65
2022/12/14 08:23:02;;;;;;;0.50;0.50;;;-1.30;99.90;-1.50;99901.00;;;;5056649;28;20209;-65
2022/12/14 08:25:42;;;;;;;8.70;7.93;;;-1.30;99.90;-0.80;99941.00;;;;5046047;28;20187;-64
2022/12/14 08:28:35;;;;;;;0.73;0.73;;;-0.80;99.90;-1.40;99951.00;;;;5056418;28;20195;-65
2022/12/14 08:35:40;;;;;;;1.03;1.03;;;-0.80;99.90;-1.30;99967.00;;;;5068028;28;20777;-63
2022/12/14 08:38:42;;;;;;;1.17;1.13;;;-0.70;99.90;-1.30;99967.00;;;;4977441;28;20193;-65
2022/12/14 08:41:41;;;;;;;0.73;0.73;;;-0.80;99.90;-1.00;99937.00;;;;5052054;28;20189;-65
2022/12/14 08:44:24;;;;;;;1.90;1.80;;;-0.80;99.90;-0.50;99948.00;;;;5055928;28;20242;-65
2022/12/14 08:47:13;;;;;;;1.70;1.70;;;-0.40;99.90;-0.40;99909.00;;;;5071991;28;20221;-65
2022/12/14 08:50:08;;;;;;;3.33;3.13;;;-0.20;99.90;-0.80;99947.00;;;;5056276;28;20205;-65
2022/12/14 08:52:51;;;;;;;0.50;0.50;;;-0.20;99.90;-0.80;99948.00;;;;5050237;28;20279;-65
2022/12/14 08:55:24;;;;;;;0.33;0.33;;;-0.40;99.90;-0.70;99953.00;;;;5068146;28;20550;-65
2022/12/14 08:58:13;;;;;;;1.70;1.63;;;-0.50;99.90;-0.70;99962.00;;;;5062051;28;20395;-65
2022/12/14 09:01:08;;;;;;;0.63;0.63;;;-0.50;99.90;-1.10;99869.00;;;;5044390;28;20573;-66
2022/12/14 09:03:40;;;;;;;0.40;0.40;;;-0.60;99.90;-0.70;99959.00;;;;5047223;28;20196;-65
2022/12/14 09:06:22;;;;;;;0.50;0.50;;;-0.50;99.90;-0.50;99968.00;;;;5049056;28;20186;-65
2022/12/14 09:08:51;;;;;;;1.90;1.90;;;-0.30;99.90;-0.90;99856.00;;;;5067743;28;20200;-65
2022/12/14 09:11:24;;;;;;;2.37;1.67;;;-0.30;99.90;-1.00;99964.00;;;;5053243;28;20193;-64
2022/12/14 09:13:54;;;;;;;0.87;0.73;;;-0.40;99.90;-1.20;99968.00;;;;5054294;28;20200;-65
2022/12/14 09:16:22;;;;;;;1.03;1.03;;;-0.40;99.90;-0.90;99968.00;;;;5053323;28;20191;-64
2022/12/14 09:18:49;;;;;;;2.57;2.40;;;-0.40;99.90;-0.70;99989.00;;;;5052733;28;20194;-64
2022/12/14 09:21:16;;;;;;;0.70;0.70;;;-0.30;99.90;-0.60;99987.00;;;;5046016;28;20184;-64
2022/12/14 09:23:51;;;;;;;3.27;3.17;;;-0.30;99.90;-0.70;99968.00;;;;5056329;28;20189;-64
2022/12/14 09:26:29;;;;;;;3.70;2.97;;;-0.30;99.90;-0.70;99990.00;;;;5072662;28;20186;-64
2022/12/14 09:29:44;;;;;;;1.57;1.47;;;-0.30;99.90;-0.80;99992.00;;;;5066388;28;20216;-65
2022/12/14 09:32:10;;;;;;;1.90;1.80;;;-0.30;99.90;-0.20;99988.00;;;;5065756;28;20210;-65
2022/12/14 09:34:38;;;;;;;0.50;0.50;;;-0.10;99.90;-0.20;99993.00;;;;5055777;28;20192;-65
2022/12/14 09:37:16;;;;;;;0.30;0.30;;;0.10;99.90;-0.10;99998.00;;;;5073783;28;20270;-65
2022/12/14 09:39:42;;;;;;;5.10;1.33;;;0.10;99.90;-0.30;99996.00;;;;5044211;28;20194;-65
2022/12/14 09:42:52;;;;;;;1.60;1.50;;;0.10;99.90;-0.50;100001.00;;;;5054398;28;20196;-65
2022/12/14 09:45:49;;;;;;;0.30;0.30;;;0.00;99.90;0.00;99997.00;;;;5029742;28;20217;-65
2022/12/14 09:48:33;;;;;;;4.83;4.57;;;0.20;99.90;-0.10;99988.00;;;;5051838;28;20663;-66
2022/12/14 09:51:31;;;;;;;1.33;1.33;;;0.30;99.90;-0.30;99926.00;;;;5049316;28;20277;-66
2022/12/14 09:54:29;;;;;;;0.70;0.70;;;0.20;99.90;0.10;100006.00;;;;5045497;28;20272;-65
2022/12/14 09:57:26;;;;;;;0.60;0.60;;;0.30;99.90;0.50;100007.00;;;;5059623;28;20628;-65
2022/12/14 10:04:34;;;;;;;0.60;0.60;;;0.80;99.90;0.40;100024.00;;;;5047305;28;20258;-64
2022/12/14 10:07:17;;;;;;;2.43;2.17;;;0.90;99.90;1.00;99942.00;;;;5066649;28;20719;-65
2022/12/14 10:10:20;;;;;;;2.97;2.77;;;1.10;99.90;-0.10;99874.00;;;;5069730;28;20272;-66
2022/12/14 10:13:11;;;;;;;0.77;0.77;;;0.90;99.90;0.20;100047.00;;;;5071422;28;20200;-67
2022/12/14 10:16:11;;;;;;;1.87;1.77;;;0.90;99.90;1.00;100032.00;;;;5052827;28;20198;-69
2022/12/14 10:19:21;;;;;;;0.87;0.87;;;1.00;99.90;1.30;100048.00;;;;5041686;28;20233;-67
2022/12/14 10:33:45;;;;;;;0.40;0.40;;;1.20;99.90;0.50;100030.00;;;;5068720;28;21103;-66
2022/12/14 10:36:29;;;;;;;1.40;1.40;;;1.10;99.90;1.50;100042.00;;;;5071943;28;20183;-66
2022/12/14 10:39:39;;;;;;;1.60;1.60;;;1.60;99.90;1.80;100043.00;;;;5049182;28;20189;-66
2022/12/14 10:42:37;;;;;;;2.63;2.00;;;2.10;99.90;0.70;100040.00;;;;5048674;28;20186;-66
2022/12/14 10:45:36;;;;;;;1.63;1.53;;;1.70;99.90;0.40;100043.00;;;;5052225;28;20280;-66
2022/12/14 10:48:30;;;;;;;0.40;0.40;;;1.30;99.90;0.80;100037.00;;;;5049786;28;20210;-66
2022/12/14 10:51:51;;;;;;;0.27;0.27;;;1.30;99.90;0.50;100034.00;;;;5050416;28;20190;-67
2022/12/14 10:54:55;;;;;;;1.73;1.63;;;1.10;99.90;1.00;100030.00;;;;5035100;28;20213;-66
2022/12/14 10:57:47;;;;;;;0.57;0.57;;;1.50;99.90;2.20;100049.00;;;;5078932;28;20193;-66
2022/12/14 11:00:22;;;;;;;2.10;1.40;;;1.90;99.90;2.20;100051.00;;;;5052695;28;20185;-66
2022/12/14 11:03:13;;;;;;;2.20;2.10;;;2.30;99.90;2.80;100048.00;;;;5048168;28;20199;-66
2022/12/14 11:06:09;;;;;;;0.37;0.37;;;2.70;99.90;1.70;99932.00;;;;5004701;28;20198;-65
2022/12/14 11:08:50;;;;;;;1.53;1.43;;;2.40;99.90;1.30;100033.00;;;;5045499;28;20182;-65
2022/12/14 11:12:34;;;;;;;0.53;0.53;;;2.00;99.90;2.10;100039.00;;;;5046819;28;20186;-65
2022/12/14 11:15:27;;;;;;;2.80;2.60;;;2.00;99.90;1.60;100042.00;;;;5044723;28;20276;-65
2022/12/14 11:18:29;;;;;;;1.63;1.53;;;2.10;99.90;1.30;100043.00;;;;5048213;28;20190;-65
2022/12/14 11:21:05;;;;;;;3.33;2.43;;;1.80;99.90;0.70;100031.00;;;;5042397;28;20273;-65
2022/12/14 11:24:05;;;;;;;0.70;0.70;;;1.70;99.90;1.50;100052.00;;;;5045486;28;20189;-65
2022/12/14 11:27:47;;;;;;;;;;;;;;;;;;;;;
2022/12/14 11:31:14;;;;;;;0.70;0.70;;;1.90;99.90;1.10;99987.00;;;;5047749;28;20169;-64
2022/12/14 11:33:53;;;;;;;0.73;0.73;;;1.70;99.90;1.40;100060.00;;;;5034220;28;20216;-64
2022/12/14 11:36:43;;;;;;;1.37;1.27;;;1.80;99.90;0.90;100062.00;;;;5044599;28;20185;-64
2022/12/14 11:39:14;;;;;;;0.73;0.60;;;1.70;99.90;1.30;100060.00;;;;5020082;28;20199;-64
2022/12/14 11:42:29;;;;;;;0.30;0.30;;;1.80;99.90;1.70;100041.00;;;;5043904;28;20186;-66
2022/12/14 11:45:32;;;;;;;0.20;0.20;;;1.80;99.90;1.50;100061.00;;;;5027283;28;20276;-66
2022/12/14 11:55:11;;;;;;;1.03;1.03;;;1.60;99.90;1.40;100064.00;;;;4943544;29;20202;-67
2022/12/14 11:58:03;;;;;;;3.10;1.60;;;1.80;99.90;0.90;100066.00;;;;4961516;28;20189;-66
2022/12/14 12:01:15;;;;;;;5.70;3.53;;;1.80;99.90;1.00;100059.00;;;;4998351;28;20226;-66
2022/12/14 12:04:19;;;;;;;1.67;1.33;;;1.80;99.90;0.70;100062.00;;;;5014137;28;20230;-66
2022/12/14 12:07:00;;;;;;;0.97;0.97;;;1.70;99.90;1.00;100050.00;;;;5005904;28;20186;-67
2022/12/14 12:09:42;;;;;;;1.03;0.90;;;1.60;99.90;2.20;100037.00;;;;5034213;28;20560;-67
2022/12/14 12:12:17;;;;;;;0.83;0.83;;;2.10;99.90;2.00;100074.00;;;;5017715;28;20206;-66
2022/12/14 12:14:55;;;;;;;0.80;0.80;;;2.20;99.90;1.90;100048.00;;;;5031679;28;20182;-67
2022/12/14 12:17:44;;;;;;;5.77;5.33;;;2.40;99.90;1.50;100068.00;;;;5032782;28;20270;-66
2022/12/14 12:20:38;;;;;;;1.60;1.60;;;2.20;99.90;2.60;99986.00;;;;5033470;28;20187;-66
2022/12/14 12:23:18;;;;;;;0.83;0.83;;;2.50;99.90;3.10;100070.00;;;;5027033;28;20202;-64
2022/12/14 12:25:50;;;;;;;0.43;0.43;;;2.90;99.90;3.40;100096.00;;;;5032252;28;20185;-67
2022/12/14 12:28:26;;;;;;;1.67;1.50;;;3.20;99.90;2.90;100096.00;;;;5032914;28;20225;-66
2022/12/14 12:31:08;;;;;;;0.93;0.93;;;3.30;99.90;2.80;100098.00;;;;5035645;28;20191;-67
2022/12/14 12:33:53;;;;;;;0.20;0.20;;;3.00;99.90;3.00;100099.00;;;;5030243;28;20195;-67
2022/12/14 12:36:32;;;;;;;1.53;1.53;;;3.10;99.90;2.80;100083.00;;;;5033519;28;20174;-67
2022/12/14 12:39:18;;;;;;;0.30;0.30;;;3.10;99.90;2.50;100029.00;;;;5033305;28;20182;-67
2022/12/14 12:42:11;;;;;;;1.53;1.43;;;2.90;99.90;1.60;99989.00;;;;5032733;28;20603;-67
2022/12/14 12:45:13;;;;;;;0.87;0.87;;;2.40;99.90;2.20;99999.00;;;;5027358;28;20217;-67
2022/12/14 12:47:51;;;;;;;3.00;2.80;;;2.30;99.90;2.50;100106.00;;;;5035471;28;20915;-67
2022/12/14 12:50:31;;;;;;;0.50;0.50;;;2.50;99.90;2.00;100107.00;;;;5032192;28;20193;-66
2022/12/14 12:53:37;;;;;;;2.27;2.17;;;2.40;99.90;2.80;100095.00;;;;5020642;28;20669;-66
2022/12/14 12:56:48;;;;;;;0.20;0.20;;;2.60;99.90;2.60;100106.00;;;;5013900;28;20201;-66
2022/12/14 12:59:49;;;;;;;0.50;0.50;;;2.80;99.90;3.00;100103.00;;;;5027692;28;20194;-67
2022/12/14 13:02:57;;;;;;;0.53;0.53;;;2.90;99.90;3.20;100111.00;;;;5018194;28;20205;-67
2022/12/14 13:06:21;;;;;;;0.50;0.50;;;3.10;99.90;2.40;100114.00;;;;5025946;28;20256;-66
2022/12/14 13:09:22;;;;;;;1.10;1.07;;;3.00;99.90;2.00;100130.00;;;;5020108;28;20356;-66
2022/12/14 13:11:57;;;;;;;0.50;0.50;;;2.50;99.90;2.30;100104.00;;;;5033540;28;20265;-66
2022/12/14 13:14:43;;;;;;;0.53;0.53;;;2.50;99.90;2.40;100136.00;;;;5026533;28;20209;-66
2022/12/14 13:17:33;;;;;;;2.00;1.40;;;2.60;99.90;1.90;100131.00;;;;5043400;28;20709;-66
2022/12/14 13:20:05;;;;;;;1.90;1.80;;;2.50;99.90;1.60;100122.00;;;;5036435;28;20199;-67
2022/12/14 13:22:33;;;;;;;1.80;1.70;;;2.20;99.90;1.40;100097.00;;;;5059051;28;20267;-66
2022/12/14 13:25:09;;;;;;;0.10;0.10;;;2.10;99.90;2.00;100109.00;;;;5025298;28;20281;-67
2022/12/14 13:27:44;;;;;;;1.30;1.07;;;2.10;99.90;1.80;100109.00;;;;5029203;28;20630;-67
2022/12/14 13:30:47;;;;;;;1.00;1.00;;;2.10;99.90;1.50;100116.00;;;;5031306;28;20192;-66
2022/12/14 13:33:40;;;;;;;3.60;3.30;;;2.00;99.90;0.80;100026.00;;;;5028648;28;20445;-66
2022/12/14 13:36:32;;;;;;;0.77;0.77;;;1.70;99.90;1.20;100101.00;;;;5033942;28;20183;-66
2022/12/14 13:39:35;;;;;;;0.10;0.10;;;1.60;99.90;1.50;100001.00;;;;5022646;28;20532;-66
2022/12/14 13:42:22;;;;;;;3.03;2.83;;;1.70;99.90;1.40;100101.00;;;;5052751;28;20261;-67
2022/12/14 13:45:16;;;;;;;1.67;1.57;;;1.70;99.90;1.60;100124.00;;;;5032175;28;20244;-67
2022/12/14 13:47:56;;;;;;;1.77;1.73;;;1.90;99.90;1.30;100105.00;;;;5018972;28;20186;-67
2022/12/14 13:50:58;;;;;;;1.00;1.00;;;1.80;99.90;1.40;100106.00;;;;5050985;28;20187;-66
2022/12/14 13:53:55;;;;;;;0.20;0.20;;;1.70;99.90;1.10;100122.00;;;;5022091;28;20221;-66
2022/12/14 13:57:16;;;;;;;0.20;0.20;;;1.70;99.90;1.10;100102.00;;;;5012574;28;20619;-67
2022/12/14 14:00:17;;;;;;;0.20;0.20;;;1.50;99.90;1.00;100122.00;;;;5025450;28;20206;-67
2022/12/14 14:03:33;;;;;;;1.47;1.40;;;1.50;99.90;0.70;100113.00;;;;5012802;28;20281;-67
2022/12/14 14:06:13;;;;;;;1.73;1.73;;;1.40;99.90;0.50;100114.00;;;;5026057;28;20187;-66
2022/12/14 14:09:26;;;;;;;2.80;2.57;;;1.20;99.90;0.70;100112.00;;;;5031924;28;20196;-66
2022/12/14 14:12:18;;;;;;;1.80;1.07;;;1.20;99.90;1.00;100126.00;;;;5021900;28;20203;-66
2022/12/14 14:14:57;;;;;;;0.20;0.20;;;1.30;99.90;1.40;100131.00;;;;5031196;28;20179;-67
2022/12/14 14:18:15;;;;;;;1.53;1.43;;;1.60;99.90;1.20;100130.00;;;;5033278;28;20193;-67
2022/12/14 14:21:19;;;;;;;2.83;2.63;;;1.60;99.90;1.60;100141.00;;;;5025165;28;20252;-67
2022/12/14 14:24:19;;;;;;;2.73;1.27;;;1.70;99.90;1.60;100043.00;;;;5027885;28;20232;-67
2022/12/14 14:27:18;;;;;;;3.30;2.80;;;1.70;99.90;0.80;100136.00;;;;5031578;28;20221;-66
2022/12/14 14:30:28;;;;;;;3.03;1.70;;;1.50;99.90;0.40;100141.00;;;;5031156;28;20266;-66
2022/12/14 14:33:27;;;;;;;3.40;1.90;;;1.30;99.90;0.40;100133.00;;;;5022281;28;20325;-67
2022/12/14 14:36:34;;;;;;;0.47;0.47;;;1.00;99.90;0.90;100124.00;;;;5027185;28;20194;-65
2022/12/14 14:39:40;;;;;;;2.93;2.83;;;1.10;99.90;1.30;100043.00;;;;5028194;28;20190;-66
2022/12/14 14:43:04;;;;;;;0.60;0.60;;;1.50;99.90;1.80;100150.00;;;;5015407;28;20181;-66
2022/12/14 14:45:49;;;;;;;2.60;2.50;;;1.70;99.90;1.50;100154.00;;;;4974897;28;20184;-65
2022/12/14 14:48:34;;;;;;;1.17;1.17;;;1.70;99.90;1.40;100158.00;;;;4975000;28;20279;-65
2022/12/14 14:51:34;;;;;;;0.47;0.47;;;1.70;99.90;1.00;100163.00;;;;5014376;28;20191;-65
2022/12/14 14:54:27;;;;;;;1.07;1.00;;;1.60;99.90;1.30;100158.00;;;;5015086;28;20214;-66
2022/12/14 14:57:39;;;;;;;1.03;1.03;;;1.50;99.90;1.10;100061.00;;;;5031898;28;20183;-66
2022/12/14 15:00:41;;;;;;;1.33;1.23;;;1.50;99.90;0.80;100137.00;;;;5028806;28;20269;-65
2022/12/14 15:07:34;;;;;;;1.17;1.07;;;1.30;99.90;0.70;100170.00;;;;5030600;28;20202;-65
2022/12/14 15:10:40;;;;;;;1.53;1.33;;;1.30;99.90;1.40;100110.00;;;;5015449;28;20194;-65
2022/12/14 15:13:49;;;;;;;2.10;0.97;;;1.30;99.90;1.30;100155.00;;;;5007367;28;20678;-65
2022/12/14 15:21:01;;;;;;;0.20;0.20;;;1.30;99.90;0.70;100176.00;;;;5030048;28;20202;-65
2022/12/14 15:23:54;;;;;;;0.30;0.30;;;1.10;99.90;0.50;100064.00;;;;5016021;28;20214;-65
2022/12/14 15:26:35;;;;;;;1.40;1.30;;;1.00;99.90;0.80;100182.00;;;;5016502;28;20240;-65
2022/12/14 15:29:28;;;;;;;0.30;0.30;;;1.00;99.90;0.80;100132.00;;;;5040894;28;20653;-65
2022/12/14 15:32:18;;;;;;;1.53;1.43;;;1.00;99.90;0.90;100187.00;;;;5014376;28;20210;-65
2022/12/14 15:35:18;;;;;;;3.90;3.70;;;1.00;99.90;0.80;100202.00;;;;5019968;28;20233;-65
2022/12/14 15:38:25;;;;;;;1.13;1.13;;;0.90;99.90;0.40;100195.00;;;;5023434;28;20189;-65
2022/12/14 15:41:04;;;;;;;1.33;1.33;;;0.80;99.90;0.70;100205.00;;;;5017364;28;20198;-65
2022/12/14 15:43:34;;;;;;;0.23;0.23;;;0.70;99.90;0.30;100196.00;;;;5034961;28;20189;-66
2022/12/14 15:46:30;;;;;;;0.20;0.20;;;0.80;99.90;0.60;100210.00;;;;5016913;28;20226;-65
2022/12/14 15:49:21;;;;;;;0.30;0.30;;;0.60;99.90;0.50;100206.00;;;;5033187;28;20191;-65
2022/12/14 15:51:52;;;;;;;0.50;0.50;;;0.60;99.90;0.30;100202.00;;;;5011768;28;20218;-65
2022/12/14 15:54:48;;;;;;;0.30;0.30;;;0.60;99.90;0.40;100205.00;;;;5017694;28;20292;-65
2022/12/14 15:57:21;;;;;;;1.17;1.17;;;0.50;99.90;0.30;100194.00;;;;5033667;28;20187;-65
2022/12/14 15:59:54;;;;;;;0.30;0.30;;;0.50;99.90;0.10;100189.00;;;;5027190;28;20306;-65
2022/12/14 16:02:30;;;;;;;0.30;0.30;;;0.30;99.90;-0.10;100214.00;;;;5033967;28;20210;-65
2022/12/14 16:04:59;;;;;;;0.30;0.30;;;0.20;99.90;0.00;100191.00;;;;5034055;28;20217;-65
2022/12/14 16:07:37;;;;;;;0.50;0.50;;;0.10;99.90;0.10;100195.00;;;;5027439;28;20190;-66
2022/12/14 16:10:35;;;;;;;0.30;0.30;;;0.10;99.90;-0.30;100196.00;;;;5034096;28;20240;-65
2022/12/14 16:13:32;;;;;;;0.30;0.30;;;0.00;99.90;0.00;100208.00;;;;5031970;28;20203;-66
2022/12/14 16:16:10;;;;;;;0.30;0.30;;;0.00;99.90;-0.20;100204.00;;;;5049466;28;20599;-66
2022/12/14 16:18:47;;;;;;;0.43;0.43;;;0.00;99.90;-0.30;100209.00;;;;5032354;28;20197;-66
2022/12/14 16:21:33;;;;;;;0.30;0.30;;;0.00;99.90;-0.10;100170.00;;;;5016223;28;20184;-66
2022/12/14 16:24:32;;;;;;;3.23;3.03;;;0.00;99.90;-0.20;100135.00;;;;5029635;28;20244;-66
2022/12/14 16:27:57;;;;;;;2.80;2.00;;;-0.10;99.90;-0.10;100210.00;;;;5030010;28;20214;-65
2022/12/14 16:33:22;;;;;;;0.30;0.30;;;0.00;99.90;0.00;100190.00;;;;5029989;28;20689;-66
2022/12/14 16:36:17;;;;;;;0.40;0.40;;;0.10;99.90;-0.40;100218.00;;;;5014494;28;20294;-65
2022/12/14 16:39:41;;;;;;;0.50;0.50;;;-0.10;99.90;-0.50;100213.00;;;;5034475;28;20190;-66
2022/12/14 16:42:43;;;;;;;0.50;0.50;;;-0.20;99.90;-0.60;100203.00;;;;5033327;28;20189;-66
2022/12/14 16:45:41;;;;;;;1.10;1.03;;;-0.40;99.90;-0.80;100102.00;;;;5031948;28;20184;-66
2022/12/14 16:48:45;;;;;;;0.40;0.40;;;-0.50;99.90;-0.50;100216.00;;;;5036433;28;20191;-66
2022/12/14 16:51:41;;;;;;;0.40;0.40;;;-0.50;99.90;-0.50;100218.00;;;;5029360;28;20186;-66
2022/12/14 16:55:30;;;;;;;0.40;0.40;;;-0.40;99.90;-1.00;100226.00;;;;5026840;28;20190;-66
2022/12/14 16:58:20;;;;;;;0.40;0.40;;;-0.60;99.90;-1.30;100218.00;;;;4991099;28;20192;-66
2022/12/14 17:01:30;;;;;;;0.70;0.70;;;-0.60;99.90;-1.00;100227.00;;;;5007500;28;20199;-67
2022/12/14 17:04:28;;;;;;;0.30;0.30;;;-0.70;99.90;-0.80;100208.00;;;;4964463;28;20184;-66
2022/12/14 17:07:32;;;;;;;1.03;1.00;;;-0.70;99.90;-0.90;100215.00;;;;4991275;28;20184;-66
2022/12/14 17:10:27;;;;;;;4.57;4.23;;;-0.60;99.90;-0.90;100233.00;;;;4976707;28;20662;-66
2022/12/14 17:13:28;;;;;;;0.70;0.70;;;-0.70;99.90;-1.10;100230.00;;;;4976628;28;20220;-66
2022/12/14 17:16:49;;;;;;;0.40;0.40;;;-0.70;99.90;-1.30;100225.00;;;;4964030;28;20183;-66
2022/12/14 17:19:32;;;;;;;0.37;0.37;;;-0.80;99.90;-1.20;100224.00;;;;4975595;28;20214;-66
2022/12/14 17:22:02;;;;;;;0.40;0.40;;;-1.00;99.90;-1.30;100231.00;;;;4992192;28;20253;-66
2022/12/14 17:24:44;;;;;;;0.40;0.40;;;-1.00;99.90;-1.40;100218.00;;;;4976262;28;20214;-66
2022/12/14 17:27:25;;;;;;;0.30;0.30;;;-1.00;99.90;-1.20;100218.00;;;;4966608;28;20584;-66
2022/12/14 17:29:52;;;;;;;0.40;0.40;;;-1.00;99.90;-1.30;100216.00;;;;4991333;28;20206;-66
2022/12/14 17:32:44;;;;;;;0.40;0.40;;;-1.00;99.90;-1.00;100214.00;;;;5041339;28;20238;-66
2022/12/14 17:35:27;;;;;;;0.50;0.50;;;-1.00;99.90;-1.30;100203.00;;;;5025919;28;20194;-66
2022/12/14 17:38:27;;;;;;;0.63;0.63;;;-1.00;99.90;-1.50;100221.00;;;;5032589;28;20539;-66
2022/12/14 17:40:56;;;;;;;0.30;0.30;;;-1.20;99.90;-1.20;100222.00;;;;5033222;28;20553;-66
2022/12/14 17:43:28;;;;;;;0.80;0.80;;;-1.10;99.90;-1.10;100211.00;;;;5048260;28;20199;-66
2022/12/14 17:45:54;;;;;;;3.03;2.80;;;-1.00;99.90;-1.80;100198.00;;;;5044907;28;20188;-66
2022/12/14 17:48:28;;;;;;;0.50;0.50;;;-1.10;99.90;-1.40;100094.00;;;;5033130;28;20199;-66
2022/12/14 17:51:25;;;;;;;0.47;0.47;;;-1.20;99.90;-1.60;100208.00;;;;5033349;28;20182;-66
2022/12/14 17:54:30;;;;;;;0.50;0.50;;;-1.10;99.90;-1.90;100085.00;;;;5030423;28;20194;-67
2022/12/14 18:02:03;;;;;;;4.80;4.57;;;-1.50;99.90;-2.00;100217.00;;;;4987527;28;20285;-66
2022/12/14 18:04:29;;;;;;;5.63;5.07;;;-1.60;99.90;-1.90;100233.00;;;;4965829;28;20323;-66
2022/12/14 18:06:56;;;;;;;0.50;0.50;;;-1.60;99.90;-2.00;100222.00;;;;5033273;28;20206;-66
2022/12/14 18:09:22;;;;;;;0.50;0.50;;;-1.60;99.90;-2.00;100217.00;;;;5037871;28;20178;-66
2022/12/14 18:11:48;;;;;;;0.40;0.40;;;-1.70;99.90;-2.00;100102.00;;;;5032731;28;20214;-66
2022/12/14 18:14:14;;;;;;;0.73;0.73;;;-1.60;99.90;-1.90;100217.00;;;;5038392;28;20641;-66
2022/12/14 18:16:59;;;;;;;1.13;1.13;;;-1.60;99.90;-2.40;100217.00;;;;5026400;28;20202;-66
2022/12/14 18:19:52;;;;;;;0.50;0.50;;;-1.70;99.90;-2.20;100192.00;;;;5032040;28;20186;-65
2022/12/14 18:22:23;;;;;;;0.77;0.77;;;-1.80;99.90;-2.30;100224.00;;;;5058268;28;20289;-65
2022/12/14 18:25:47;;;;;;;2.60;2.20;;;-1.80;99.90;-2.70;100217.00;;;;5028353;28;20210;-65
2022/12/14 18:28:16;;;;;;;2.30;2.20;;;-1.90;99.90;-2.20;100212.00;;;;5033262;28;20188;-65
2022/12/14 18:30:58;;;;;;;0.80;0.80;;;-1.80;99.90;-2.00;100225.00;;;;5032637;28;20190;-66
2022/12/14 18:33:33;;;;;;;0.40;0.40;;;-1.70;99.90;-1.60;100229.00;;;;5028677;28;20570;-65
2022/12/14 18:36:18;;;;;;;0.60;0.60;;;-1.50;99.90;-1.60;100223.00;;;;5027155;28;20179;-65
2022/12/14 18:39:10;;;;;;;1.33;1.33;;;-1.40;99.90;-2.30;100200.00;;;;5021556;28;20183;-65
2022/12/14 18:41:38;;;;;;;0.50;0.50;;;-1.60;99.90;-2.20;100210.00;;;;5033556;28;20263;-65
2022/12/14 18:44:10;;;;;;;0.50;0.50;;;-1.80;99.90;-2.30;100229.00;;;;5037342;28;20205;-65
2022/12/14 18:46:41;;;;;;;0.50;0.50;;;-1.90;99.90;-2.30;100230.00;;;;5031491;28;20236;-65
2022/12/14 18:49:18;;;;;;;1.20;1.20;;;-1.90;99.90;-2.20;100232.00;;;;5031994;28;20173;-65
2022/12/14 18:52:02;;;;;;;0.53;0.53;;;-1.90;99.90;-2.20;100217.00;;;;5024915;28;20206;-65
2022/12/14 18:54:53;;;;;;;1.13;1.03;;;-1.90;99.90;-2.30;100219.00;;;;5030262;28;20583;-65
2022/12/14 18:57:25;;;;;;;2.50;2.40;;;-1.90;99.90;-2.00;100230.00;;;;5031464;28;20283;-67
2022/12/14 19:00:03;;;;;;;0.93;0.93;;;-1.60;99.90;-2.50;100231.00;;;;5035574;28;20191;-64
2022/12/14 19:02:37;;;;;;;0.50;0.50;;;-1.90;99.90;-2.50;100202.00;;;;5036732;28;20209;-67
2022/12/14 19:05:10;;;;;;;0.50;0.50;;;-2.10;99.90;-2.40;100235.00;;;;5025636;28;20231;-63
2022/12/14 19:07:48;;;;;;;0.70;0.70;;;-2.10;99.90;-2.40;100241.00;;;;5034690;28;20182;-64
2022/12/14 19:10:22;;;;;;;2.70;2.60;;;-2.10;99.90;-2.50;100240.00;;;;5025263;28;20183;-63
2022/12/14 19:13:28;;;;;;;0.60;0.60;;;-2.10;99.90;-2.10;100239.00;;;;5029676;28;20234;-63
2022/12/14 19:16:50;;;;;;;18.57;17.70;;;-1.80;99.90;-2.00;100224.00;;;;5073902;28;20204;-63
2022/12/14 19:19:36;;;;;;;0.50;0.50;;;-1.80;99.90;-2.10;100256.00;;;;5043144;28;20634;-64
2022/12/14 19:22:04;;;;;;;1.17;1.17;;;-1.60;99.90;-1.90;100260.00;;;;5045199;28;20184;-63
2022/12/14 19:25:05;;;;;;;0.60;0.60;;;-1.70;99.90;-2.30;100245.00;;;;5043027;28;20698;-63
2022/12/14 19:28:16;;;;;;;2.97;2.87;;;-1.80;99.90;-2.80;100227.00;;;;5044862;28;20194;-64
2022/12/14 19:31:23;;;;;;;1.40;1.40;;;-2.10;99.90;-3.10;100233.00;;;;5045318;28;20666;-65
2022/12/14 19:34:16;;;;;;;1.10;1.10;;;-2.30;99.90;-3.30;100233.00;;;;5076500;28;20196;-63
2022/12/14 19:36:50;;;;;;;1.60;1.60;;;-2.50;99.90;-2.70;100207.00;;;;5043235;28;20662;-63
2022/12/14 19:39:21;;;;;;;0.60;0.60;;;-2.40;99.90;-2.50;100209.00;;;;5035680;28;20182;-64
2022/12/14 19:45:54;;;;;;;0.93;0.93;;;-2.00;99.90;-2.20;100258.00;;;;5029460;28;20603;-63
2022/12/14 19:48:56;;;;;;;0.80;0.80;;;-1.90;99.90;-2.20;100253.00;;;;5022365;28;20197;-63
2022/12/14 19:52:03;;;;;;;1.37;1.37;;;-1.90;99.90;-2.30;100244.00;;;;5050997;28;20186;-63
2022/12/14 19:55:11;;;;;;;0.70;0.70;;;-1.90;99.90;-2.40;100223.00;;;;5029984;28;20217;-63
2022/12/14 19:58:24;;;;;;;0.70;0.70;;;-2.00;99.90;-2.40;100225.00;;;;5033508;28;20572;-64
2022/12/14 20:01:36;;;;;;;1.50;1.50;;;-2.00;99.90;-2.20;100230.00;;;;5026629;28;20213;-64
2022/12/14 20:04:35;;;;;;;1.93;1.93;;;-1.90;99.90;-2.00;100267.00;;;;5022725;28;20187;-64
2022/12/14 20:07:39;;;;;;;0.60;0.60;;;-1.80;99.90;-2.00;100249.00;;;;5034367;28;20190;-65
2022/12/14 20:10:35;;;;;;;0.70;0.70;;;-1.60;99.90;-2.00;100256.00;;;;5035066;28;20183;-64
2022/12/14 20:13:36;;;;;;;0.60;0.60;;;-1.70;99.90;-2.10;100259.00;;;;5031937;28;20206;-64
2022/12/14 20:16:27;;;;;;;1.00;1.00;;;-1.70;99.90;-2.30;100269.00;;;;5047511;28;20603;-64
2022/12/14 20:19:28;;;;;;;0.87;0.87;;;-1.70;99.90;-2.10;100232.00;;;;5034204;28;20195;-64
2022/12/14 20:22:42;;;;;;;0.70;0.70;;;-1.70;99.90;-2.10;100277.00;;;;5035311;28;20187;-64
2022/12/14 20:25:43;;;;;;;0.70;0.70;;;-1.70;99.90;-2.00;100287.00;;;;5056367;28;20643;-64
2022/12/14 20:28:09;;;;;;;0.70;0.70;;;-1.70;99.90;-1.80;100269.00;;;;5019416;28;20250;-64
2022/12/14 20:31:13;;;;;;;0.60;0.60;;;-1.70;99.90;-2.00;100301.00;;;;5033867;28;20620;-64
2022/12/14 20:34:15;;;;;;;1.10;1.10;;;-1.70;99.90;-2.10;100287.00;;;;5033395;28;20218;-64
2022/12/14 20:36:41;;;;;;;0.70;0.70;;;-1.80;99.90;-2.10;100315.00;;;;5033329;28;20174;-64
2022/12/14 20:39:07;;;;;;;1.40;1.30;;;-1.80;99.90;-2.10;100271.00;;;;5034679;28;20201;-64
2022/12/14 20:41:39;;;;;;;0.73;0.73;;;-1.80;99.90;-2.00;100293.00;;;;5035135;28;20265;-64
2022/12/14 20:44:20;;;;;;;0.70;0.70;;;-1.80;99.90;-2.60;100309.00;;;;5025330;28;20183;-64
2022/12/14 20:47:07;;;;;;;0.67;0.67;;;-1.80;99.90;-2.00;100309.00;;;;5034467;28;20187;-64
2022/12/14 20:50:08;;;;;;;6.80;6.50;;;-1.70;99.90;-1.90;100316.00;;;;5033702;28;20193;-64
2022/12/14 20:53:26;;;;;;;0.70;0.70;;;-1.70;99.90;-2.10;100286.00;;;;5031336;28;20198;-64
2022/12/14 20:56:37;;;;;;;0.70;0.70;;;-1.70;99.90;-1.70;100325.00;;;;5025446;28;20203;-64
2022/12/14 20:59:38;;;;;;;0.70;0.70;;;-1.60;99.90;-2.00;100317.00;;;;5026092;28;20178;-64
2022/12/14 21:02:47;;;;;;;0.70;0.70;;;-1.60;99.90;-2.30;100334.00;;;;5033194;28;20187;-64
2022/12/14 21:05:38;;;;;;;0.70;0.70;;;-1.70;99.90;-2.20;100335.00;;;;5025506;28;20202;-63